Time;durP1;ratioP1;P1;durP2;ratioP2;P2;SDS_P1;SDS_P2;PMS_P1;PMS_P2;Temp;Humidity;BMP_temperature;BMP_pressure;BME280_temperature;BME280_humidity;BME280_pressure;Samples;Min_cycle;Max_cycle;Signal;HPM_P1;HPM_P2
2020/03/03 00:02:02;;;;;;;1.84;1.43;;;;;;;19.20;39.72;98395.63;;;;-56
2020/03/03 00:06:02;;;;;;;2.14;1.30;;;;;;;19.19;39.72;98410.51;;;;-57
2020/03/03 00:09:02;;;;;;;1.51;1.41;;;;;;;19.17;39.77;98439.59;;;;-57
2020/03/03 00:13:02;;;;;;;1.55;1.45;;;;;;;19.16;39.75;98453.30;;;;-57
2020/03/03 00:16:02;;;;;;;1.47;1.37;;;;;;;19.15;39.75;98465.67;;;;-57
2020/03/03 00:19:02;;;;;;;1.50;1.40;;;;;;;19.13;39.80;98470.60;;;;-58
2020/03/03 00:22:02;;;;;;;1.65;1.35;;;;;;;19.11;39.81;98480.80;;;;-56
2020/03/03 00:25:02;;;;;;;1.51;1.41;;;;;;;19.11;39.81;98489.08;;;;-57
2020/03/03 00:28:02;;;;;;;1.42;1.32;;;;;;;19.09;39.79;98491.58;;;;-57
2020/03/03 00:31:02;;;;;;;1.40;1.30;;;;;;;19.08;39.81;98498.25;;;;-57
2020/03/03 00:34:02;;;;;;;1.44;1.34;;;;;;;19.06;39.82;98501.23;;;;-57
2020/03/03 00:37:02;;;;;;;1.43;1.33;;;;;;;19.06;39.80;98508.84;;;;-57
2020/03/03 00:40:02;;;;;;;1.47;1.37;;;;;;;19.05;39.85;98517.53;;;;-57
2020/03/03 00:43:02;;;;;;;1.48;1.38;;;;;;;19.03;39.85;98519.42;;;;-57
2020/03/03 00:46:02;;;;;;;1.47;1.31;;;;;;;19.02;39.88;98527.61;;;;-56
2020/03/03 00:49:02;;;;;;;1.40;1.30;;;;;;;19.01;39.92;98534.69;;;;-58
2020/03/03 00:52:02;;;;;;;1.42;1.32;;;;;;;19.00;39.90;98542.97;;;;-56
2020/03/03 00:55:02;;;;;;;1.41;1.31;;;;;;;18.99;39.88;98543.86;;;;-58
2020/03/03 00:58:02;;;;;;;1.40;1.30;;;;;;;18.98;39.89;98546.02;;;;-57
2020/03/03 01:01:02;;;;;;;1.39;1.29;;;;;;;18.96;39.91;98549.92;;;;-57
2020/03/03 01:04:02;;;;;;;1.50;1.40;;;;;;;18.96;39.89;98559.47;;;;-58
2020/03/03 01:07:02;;;;;;;1.31;1.21;;;;;;;18.94;39.93;98553.92;;;;-56
2020/03/03 01:10:02;;;;;;;1.47;1.37;;;;;;;18.94;39.90;98567.13;;;;-57
2020/03/03 01:13:02;;;;;;;1.35;1.23;;;;;;;18.92;39.94;98565.75;;;;-58
2020/03/03 01:16:02;;;;;;;1.31;1.21;;;;;;;18.91;39.96;98569.86;;;;-56
2020/03/03 01:19:02;;;;;;;1.27;1.19;;;;;;;18.90;39.95;98580.88;;;;-58
2020/03/03 01:22:03;;;;;;;1.30;1.20;;;;;;;18.89;39.94;98591.46;;;;-57
2020/03/03 01:25:03;;;;;;;1.31;1.21;;;;;;;18.89;39.96;98609.60;;;;-57
2020/03/03 01:28:07;;;;;;;1.43;1.33;;;;;;;18.87;39.99;98616.62;;;;-57
2020/03/03 01:31:02;;;;;;;1.25;1.15;;;;;;;18.86;39.96;98626.80;;;;-56
2020/03/03 01:34:02;;;;;;;1.40;1.30;;;;;;;18.85;39.96;98632.90;;;;-57
2020/03/03 01:37:02;;;;;;;1.35;1.25;;;;;;;18.84;39.99;98637.23;;;;-57
2020/03/03 01:40:02;;;;;;;1.26;1.16;;;;;;;18.83;40.03;98641.77;;;;-57
2020/03/03 01:43:02;;;;;;;1.31;1.21;;;;;;;18.82;39.98;98644.02;;;;-57
2020/03/03 01:46:02;;;;;;;1.41;1.31;;;;;;;18.80;40.01;98647.02;;;;-58
2020/03/03 01:49:02;;;;;;;1.20;1.10;;;;;;;18.80;40.05;98650.70;;;;-58
2020/03/03 01:52:02;;;;;;;1.29;1.19;;;;;;;18.79;40.04;98656.11;;;;-57
2020/03/03 01:55:02;;;;;;;1.33;1.23;;;;;;;18.77;40.03;98659.91;;;;-57
2020/03/03 01:58:02;;;;;;;1.41;1.31;;;;;;;18.76;40.02;98664.41;;;;-57
2020/03/03 02:01:02;;;;;;;1.30;1.20;;;;;;;18.75;40.10;98670.75;;;;-57
2020/03/03 02:04:02;;;;;;;1.50;1.29;;;;;;;18.75;40.03;98681.45;;;;-57
2020/03/03 02:07:02;;;;;;;2.05;1.20;;;;;;;18.75;40.06;98687.47;;;;-57
2020/03/03 02:10:02;;;;;;;1.19;1.11;;;;;;;18.73;40.07;98690.37;;;;-58
2020/03/03 02:13:02;;;;;;;1.01;1.01;;;;;;;18.73;40.05;98696.63;;;;-57
2020/03/03 02:16:02;;;;;;;1.17;1.09;;;;;;;18.72;40.07;98702.97;;;;-56
2020/03/03 02:19:02;;;;;;;1.17;1.10;;;;;;;18.70;40.10;98704.36;;;;-56
2020/03/03 02:22:02;;;;;;;1.23;1.15;;;;;;;18.70;40.07;98714.96;;;;-57
2020/03/03 02:25:02;;;;;;;1.17;1.10;;;;;;;18.68;40.09;98718.36;;;;-58
2020/03/03 02:28:02;;;;;;;1.30;1.20;;;;;;;18.68;40.06;98718.09;;;;-56
2020/03/03 02:31:02;;;;;;;1.31;1.21;;;;;;;18.68;40.11;98725.80;;;;-57
2020/03/03 02:34:02;;;;;;;1.25;1.15;;;;;;;18.67;40.12;98735.23;;;;-57
2020/03/03 02:37:02;;;;;;;1.15;1.10;;;;;;;18.67;40.09;98740.32;;;;-57
2020/03/03 02:40:02;;;;;;;1.31;1.20;;;;;;;18.65;40.10;98747.30;;;;-57
2020/03/03 02:43:02;;;;;;;1.24;1.14;;;;;;;18.64;40.13;98756.73;;;;-57
2020/03/03 02:46:02;;;;;;;1.15;1.11;;;;;;;18.63;40.14;98760.06;;;;-57
2020/03/03 02:49:02;;;;;;;1.25;1.15;;;;;;;18.62;40.14;98765.39;;;;-56
2020/03/03 02:52:02;;;;;;;1.28;1.18;;;;;;;18.61;40.14;98771.56;;;;-58
2020/03/03 02:55:02;;;;;;;1.15;1.10;;;;;;;18.61;40.14;98792.62;;;;-58
2020/03/03 02:58:02;;;;;;;1.07;1.07;;;;;;;18.59;40.17;98806.95;;;;-57
2020/03/03 03:01:02;;;;;;;1.14;1.10;;;;;;;18.58;40.17;98826.06;;;;-56
2020/03/03 03:04:02;;;;;;;1.17;1.13;;;;;;;18.57;40.13;98851.05;;;;-57
2020/03/03 03:07:02;;;;;;;1.23;1.13;;;;;;;18.56;40.13;98850.78;;;;-57
2020/03/03 03:10:02;;;;;;;1.07;1.03;;;;;;;18.55;40.10;98863.80;;;;-57
2020/03/03 03:13:02;;;;;;;1.11;1.05;;;;;;;18.54;40.12;98871.94;;;;-57
2020/03/03 03:16:02;;;;;;;1.01;1.00;;;;;;;18.53;40.10;98879.55;;;;-57
2020/03/03 03:19:02;;;;;;;1.00;1.00;;;;;;;18.53;40.04;98892.81;;;;-57
2020/03/03 03:22:02;;;;;;;1.11;1.00;;;;;;;18.52;40.06;98898.25;;;;-57
2020/03/03 03:25:02;;;;;;;1.32;1.09;;;;;;;18.50;40.05;98911.90;;;;-57
2020/03/03 03:28:02;;;;;;;1.22;1.15;;;;;;;18.50;40.04;98916.15;;;;-57
2020/03/03 03:31:02;;;;;;;1.18;1.08;;;;;;;18.49;40.02;98920.73;;;;-57
2020/03/03 03:34:02;;;;;;;1.19;1.00;;;;;;;18.48;40.03;98930.23;;;;-57
2020/03/03 03:37:02;;;;;;;1.00;1.00;;;;;;;18.48;40.03;98939.77;;;;-56
2020/03/03 03:40:02;;;;;;;1.30;1.20;;;;;;;18.47;40.01;98948.77;;;;-56
2020/03/03 03:43:02;;;;;;;1.01;1.01;;;;;;;18.47;40.06;98955.80;;;;-56
2020/03/03 03:46:02;;;;;;;1.09;1.09;;;;;;;18.45;40.07;98962.59;;;;-56
2020/03/03 03:49:02;;;;;;;1.27;1.00;;;;;;;18.45;40.05;98978.24;;;;-58
2020/03/03 03:52:02;;;;;;;1.13;1.07;;;;;;;18.44;40.06;98992.25;;;;-58
2020/03/03 03:55:02;;;;;;;0.95;0.95;;;;;;;18.43;40.04;98998.14;;;;-57
2020/03/03 03:58:02;;;;;;;0.99;0.99;;;;;;;18.42;40.05;99007.08;;;;-58
2020/03/03 04:01:02;;;;;;;0.80;0.80;;;;;;;18.42;40.07;99009.31;;;;-57
2020/03/03 04:04:02;;;;;;;1.07;1.05;;;;;;;18.42;40.04;99016.84;;;;-57
2020/03/03 04:07:02;;;;;;;1.24;1.07;;;;;;;18.42;40.01;99020.11;;;;-57
2020/03/03 04:10:02;;;;;;;1.09;1.03;;;;;;;18.43;40.06;99022.81;;;;-57
2020/03/03 04:13:02;;;;;;;0.95;0.94;;;;;;;18.44;40.03;99033.04;;;;-58
2020/03/03 04:16:02;;;;;;;0.97;0.97;;;;;;;18.45;40.06;99041.66;;;;-57
2020/03/03 04:19:02;;;;;;;1.00;1.00;;;;;;;18.47;40.07;99052.17;;;;-58
2020/03/03 04:22:02;;;;;;;1.27;1.15;;;;;;;18.49;40.06;99059.55;;;;-57
2020/03/03 04:25:02;;;;;;;0.92;0.90;;;;;;;18.52;40.07;99064.91;;;;-57
2020/03/03 04:28:02;;;;;;;1.17;1.10;;;;;;;18.54;40.01;99064.95;;;;-57
2020/03/03 04:31:02;;;;;;;1.01;1.00;;;;;;;18.58;40.03;99069.14;;;;-57
2020/03/03 04:34:02;;;;;;;1.29;1.03;;;;;;;18.61;39.95;99076.61;;;;-57
2020/03/03 04:37:02;;;;;;;1.07;0.97;;;;;;;18.66;39.99;99078.98;;;;-57
2020/03/03 04:40:02;;;;;;;1.16;0.96;;;;;;;18.69;40.00;99086.81;;;;-57
2020/03/03 04:43:02;;;;;;;0.86;0.85;;;;;;;18.73;40.08;99091.09;;;;-57
2020/03/03 04:46:02;;;;;;;1.03;1.01;;;;;;;18.77;40.02;99092.70;;;;-57
2020/03/03 04:49:02;;;;;;;1.12;1.00;;;;;;;18.82;40.07;99099.83;;;;-57
2020/03/03 04:52:02;;;;;;;1.00;1.00;;;;;;;18.86;40.13;99102.19;;;;-57
2020/03/03 04:55:02;;;;;;;0.93;0.93;;;;;;;18.88;40.15;99106.69;;;;-58
2020/03/03 04:58:02;;;;;;;0.97;0.97;;;;;;;18.92;40.06;99115.49;;;;-57
2020/03/03 05:01:02;;;;;;;0.91;0.91;;;;;;;18.94;40.05;99119.20;;;;-57
2020/03/03 05:04:04;;;;;;;1.01;0.97;;;;;;;18.96;40.01;99119.50;;;;-58
2020/03/03 05:08:02;;;;;;;1.11;1.01;;;;;;;19.03;40.06;99124.03;;;;-57
2020/03/03 05:11:02;;;;;;;0.92;0.92;;;;;;;19.05;39.97;99128.59;;;;-57
2020/03/03 05:14:02;;;;;;;1.04;1.00;;;;;;;19.11;40.06;99135.08;;;;-57
2020/03/03 05:17:02;;;;;;;1.01;1.00;;;;;;;19.12;40.01;99137.81;;;;-56
2020/03/03 05:20:02;;;;;;;1.12;1.03;;;;;;;19.15;40.01;99143.58;;;;-57
2020/03/03 05:23:02;;;;;;;0.93;0.93;;;;;;;19.18;40.01;99149.17;;;;-57
2020/03/03 05:26:02;;;;;;;1.15;1.06;;;;;;;19.21;39.99;99153.26;;;;-57
2020/03/03 05:29:02;;;;;;;1.01;1.01;;;;;;;19.23;40.03;99157.75;;;;-57
2020/03/03 05:32:02;;;;;;;1.17;1.07;;;;;;;19.26;39.97;99164.20;;;;-57
2020/03/03 05:35:02;;;;;;;1.35;1.00;;;;;;;19.27;39.98;99174.26;;;;-57
2020/03/03 05:38:02;;;;;;;1.07;0.97;;;;;;;19.30;39.90;99174.06;;;;-57
2020/03/03 05:41:02;;;;;;;0.85;0.85;;;;;;;19.32;39.95;99173.78;;;;-57
2020/03/03 05:44:02;;;;;;;1.21;1.09;;;;;;;19.33;39.90;99174.23;;;;-56
2020/03/03 05:47:02;;;;;;;1.00;0.92;;;;;;;19.36;39.86;99179.55;;;;-57
2020/03/03 05:50:02;;;;;;;1.00;1.00;;;;;;;19.38;39.86;99183.20;;;;-57
2020/03/03 05:53:02;;;;;;;1.11;1.03;;;;;;;19.39;39.78;99185.94;;;;-57
2020/03/03 05:56:02;;;;;;;1.09;1.09;;;;;;;19.41;39.76;99186.05;;;;-57
2020/03/03 05:59:02;;;;;;;1.25;1.10;;;;;;;19.42;39.74;99190.16;;;;-57
2020/03/03 06:02:02;;;;;;;1.00;1.00;;;;;;;19.42;39.67;99194.25;;;;-57
2020/03/03 06:05:02;;;;;;;1.01;0.99;;;;;;;19.43;39.69;99198.75;;;;-57
2020/03/03 06:08:02;;;;;;;1.00;1.00;;;;;;;19.45;39.63;99209.31;;;;-56
2020/03/03 06:11:02;;;;;;;1.12;1.05;;;;;;;19.45;39.60;99204.91;;;;-57
2020/03/03 06:14:02;;;;;;;1.21;1.11;;;;;;;19.46;39.62;99216.21;;;;-56
2020/03/03 06:17:02;;;;;;;1.17;1.01;;;;;;;19.45;39.59;99219.87;;;;-57
2020/03/03 06:20:02;;;;;;;1.00;1.00;;;;;;;19.46;39.58;99229.11;;;;-57
2020/03/03 06:23:02;;;;;;;1.63;1.10;;;;;;;19.48;39.59;99239.94;;;;-57
2020/03/03 06:26:02;;;;;;;1.17;1.02;;;;;;;19.47;39.53;99246.54;;;;-57
2020/03/03 06:29:02;;;;;;;1.20;1.10;;;;;;;19.49;39.48;99247.53;;;;-56
2020/03/03 06:32:02;;;;;;;1.25;1.15;;;;;;;19.49;39.50;99251.95;;;;-57
2020/03/03 06:35:02;;;;;;;1.19;1.10;;;;;;;19.50;39.47;99250.80;;;;-56
2020/03/03 06:38:02;;;;;;;1.13;1.04;;;;;;;19.51;39.44;99254.51;;;;-58
2020/03/03 06:41:02;;;;;;;0.96;0.96;;;;;;;19.51;39.46;99261.04;;;;-56
2020/03/03 06:44:02;;;;;;;1.03;0.99;;;;;;;19.53;39.41;99267.02;;;;-57
2020/03/03 06:47:02;;;;;;;1.27;1.17;;;;;;;19.53;39.40;99272.05;;;;-57
2020/03/03 06:50:02;;;;;;;1.20;1.10;;;;;;;19.54;39.39;99279.20;;;;-56
2020/03/03 06:53:02;;;;;;;5.25;1.60;;;;;;;19.35;37.79;99287.19;;;;-62
2020/03/03 06:56:02;;;;;;;4.02;2.40;;;;;;;19.00;36.88;99283.56;;;;-57
2020/03/03 06:59:02;;;;;;;6.49;2.69;;;;;;;18.75;36.56;99292.66;;;;-59
2020/03/03 07:02:02;;;;;;;4.55;2.71;;;;;;;18.60;36.55;99299.52;;;;-60
2020/03/03 07:05:02;;;;;;;4.37;2.49;;;;;;;18.66;36.89;99301.77;;;;-55
2020/03/03 07:08:02;;;;;;;4.03;2.17;;;;;;;18.80;37.52;99304.42;;;;-55
2020/03/03 07:12:02;;;;;;;3.83;2.10;;;;;;;18.90;37.36;99300.95;;;;-55
2020/03/03 07:15:02;;;;;;;4.23;2.01;;;;;;;18.96;37.63;99296.91;;;;-55
2020/03/03 07:18:02;;;;;;;3.71;1.80;;;;;;;19.00;37.81;99292.60;;;;-57
2020/03/03 07:21:02;;;;;;;4.52;1.91;;;;;;;19.03;37.91;99296.60;;;;-55
2020/03/03 07:24:02;;;;;;;2.49;1.69;;;;;;;19.05;37.97;99305.19;;;;-56
2020/03/03 07:27:02;;;;;;;3.11;1.75;;;;;;;19.07;37.96;99309.77;;;;-57
2020/03/03 07:30:02;;;;;;;2.76;1.68;;;;;;;19.07;38.12;99310.77;;;;-56
2020/03/03 07:33:02;;;;;;;2.55;1.75;;;;;;;19.08;38.15;99311.97;;;;-55
2020/03/03 07:36:02;;;;;;;2.89;1.80;;;;;;;19.08;38.21;99306.95;;;;-56
2020/03/03 07:39:02;;;;;;;2.67;1.61;;;;;;;19.08;38.27;99307.71;;;;-56
2020/03/03 07:42:02;;;;;;;2.70;1.44;;;;;;;19.08;38.29;99306.78;;;;-57
2020/03/03 07:45:02;;;;;;;2.77;1.70;;;;;;;19.08;38.29;99312.20;;;;-55
2020/03/03 07:48:02;;;;;;;3.65;1.70;;;;;;;19.08;38.36;99314.48;;;;-55
2020/03/03 07:51:02;;;;;;;2.29;1.62;;;;;;;19.07;38.40;99317.19;;;;-55
2020/03/03 07:54:02;;;;;;;2.00;1.63;;;;;;;19.06;38.43;99313.52;;;;-56
2020/03/03 07:57:02;;;;;;;1.52;1.40;;;;;;;19.06;38.38;99314.42;;;;-55
2020/03/03 08:00:02;;;;;;;1.90;1.60;;;;;;;19.04;38.47;99318.31;;;;-57
2020/03/03 08:03:02;;;;;;;2.40;1.51;;;;;;;19.04;38.54;99314.03;;;;-57
2020/03/03 08:06:02;;;;;;;3.04;1.60;;;;;;;19.04;38.48;99320.16;;;;-55
2020/03/03 08:09:02;;;;;;;2.10;1.47;;;;;;;19.02;38.52;99315.58;;;;-55
2020/03/03 08:12:02;;;;;;;1.53;1.39;;;;;;;19.02;38.59;99315.58;;;;-55
2020/03/03 08:15:02;;;;;;;1.69;1.53;;;;;;;19.01;38.56;99312.77;;;;-55
2020/03/03 08:18:02;;;;;;;1.63;1.48;;;;;;;19.00;38.61;99318.44;;;;-56
2020/03/03 08:21:02;;;;;;;2.15;1.48;;;;;;;18.99;38.66;99327.11;;;;-56
2020/03/03 08:24:02;;;;;;;1.74;1.43;;;;;;;18.98;38.63;99325.23;;;;-56
2020/03/03 08:27:02;;;;;;;2.60;1.52;;;;;;;18.97;38.69;99323.47;;;;-55
2020/03/03 08:30:02;;;;;;;1.75;1.39;;;;;;;18.96;38.71;99325.95;;;;-55
2020/03/03 08:33:02;;;;;;;2.41;1.47;;;;;;;18.94;38.82;99325.30;;;;-60
2020/03/03 08:36:02;;;;;;;4.44;1.70;;;;;;;18.96;39.01;99330.47;;;;-58
2020/03/03 08:39:02;;;;;;;3.71;1.57;;;;;;;18.99;39.13;99332.55;;;;-55
2020/03/03 08:42:02;;;;;;;2.73;1.79;;;;;;;18.99;39.00;99338.92;;;;-54
2020/03/03 08:45:02;;;;;;;4.97;1.50;;;;;;;19.00;38.98;99341.12;;;;-61
2020/03/03 08:48:02;;;;;;;3.55;1.70;;;;;;;19.03;38.88;99344.45;;;;-58
2020/03/03 08:51:02;;;;;;;5.51;1.60;;;;;;;19.05;38.30;99337.81;;;;-59
2020/03/03 08:54:02;;;;;;;2.45;1.80;;;;;;;19.08;38.11;99343.25;;;;-62
2020/03/03 08:57:02;;;;;;;2.45;1.71;;;;;;;19.12;38.62;99343.54;;;;-59
2020/03/03 09:00:02;;;;;;;4.66;1.50;;;;;;;19.14;37.80;99342.79;;;;-58
2020/03/03 09:03:02;;;;;;;2.95;1.48;;;;;;;19.19;38.46;99344.27;;;;-56
2020/03/03 09:06:02;;;;;;;2.47;1.53;;;;;;;19.23;38.72;99353.91;;;;-56
2020/03/03 09:09:02;;;;;;;2.99;1.65;;;;;;;19.24;38.67;99353.67;;;;-56
2020/03/03 09:12:02;;;;;;;2.88;1.51;;;;;;;19.28;38.83;99347.36;;;;-56
2020/03/03 09:15:02;;;;;;;2.13;1.48;;;;;;;19.29;38.71;99357.27;;;;-56
2020/03/03 09:18:02;;;;;;;2.82;1.51;;;;;;;19.34;38.81;99358.20;;;;-56
2020/03/03 09:21:02;;;;;;;3.71;1.49;;;;;;;19.39;39.18;99358.84;;;;-53
2020/03/03 09:24:02;;;;;;;3.11;1.45;;;;;;;19.41;38.94;99360.94;;;;-59
2020/03/03 09:27:02;;;;;;;5.08;1.75;;;;;;;19.49;39.31;99363.30;;;;-60
2020/03/03 09:30:02;;;;;;;4.20;1.70;;;;;;;19.52;39.75;99368.06;;;;-61
2020/03/03 09:33:02;;;;;;;3.32;1.48;;;;;;;19.57;39.87;99369.71;;;;-56
2020/03/03 09:36:02;;;;;;;2.41;1.58;;;;;;;19.61;40.04;99377.75;;;;-53
2020/03/03 09:39:02;;;;;;;5.42;1.40;;;;;;;19.61;39.13;99377.31;;;;-54
2020/03/03 09:42:02;;;;;;;3.55;1.55;;;;;;;19.66;39.74;99378.22;;;;-59
2020/03/03 09:45:02;;;;;;;2.90;1.50;;;;;;;19.70;40.07;99376.72;;;;-52
2020/03/03 09:48:02;;;;;;;2.90;1.49;;;;;;;19.76;40.08;99381.91;;;;-63
2020/03/03 09:51:02;;;;;;;2.87;1.39;;;;;;;19.79;40.23;99382.91;;;;-65
2020/03/03 09:54:02;;;;;;;2.10;1.51;;;;;;;19.83;40.10;99383.26;;;;-65
2020/03/03 09:57:02;;;;;;;2.29;1.49;;;;;;;19.86;40.00;99383.73;;;;-53
2020/03/03 10:00:04;;;;;;;3.75;1.49;;;;;;;19.90;40.17;99386.61;;;;-56
2020/03/03 10:03:02;;;;;;;2.02;1.41;;;;;;;19.95;40.04;99392.27;;;;-54
2020/03/03 10:06:02;;;;;;;3.68;1.43;;;;;;;19.99;40.12;99393.15;;;;-54
2020/03/03 10:09:02;;;;;;;2.91;1.50;;;;;;;20.04;40.34;99391.66;;;;-57
2020/03/03 10:12:02;;;;;;;5.03;1.62;;;;;;;20.04;40.09;99391.86;;;;-57
2020/03/03 10:15:02;;;;;;;2.14;1.43;;;;;;;20.07;40.01;99393.52;;;;-56
2020/03/03 10:18:02;;;;;;;4.55;1.45;;;;;;;20.12;40.16;99395.48;;;;-57
2020/03/03 10:21:02;;;;;;;4.33;1.31;;;;;;;20.12;39.48;99399.24;;;;-54
2020/03/03 10:24:02;;;;;;;2.03;1.38;;;;;;;20.15;39.73;99398.74;;;;-54
2020/03/03 10:27:02;;;;;;;2.15;1.49;;;;;;;20.18;40.09;99397.11;;;;-55
2020/03/03 10:30:02;;;;;;;1.93;1.39;;;;;;;20.22;40.00;99394.45;;;;-58
2020/03/03 10:33:02;;;;;;;2.34;1.39;;;;;;;20.26;40.13;99392.71;;;;-56
2020/03/03 10:36:02;;;;;;;1.88;1.31;;;;;;;20.27;39.97;99394.55;;;;-59
2020/03/03 10:39:02;;;;;;;1.71;1.30;;;;;;;20.30;40.01;99398.84;;;;-60
2020/03/03 10:42:02;;;;;;;1.69;1.37;;;;;;;20.32;39.54;99399.70;;;;-60
2020/03/03 10:45:02;;;;;;;1.35;1.17;;;;;;;20.32;39.63;99399.53;;;;-61
2020/03/03 10:48:02;;;;;;;1.53;1.30;;;;;;;20.33;39.75;99402.94;;;;-57
2020/03/03 10:51:02;;;;;;;1.85;1.37;;;;;;;20.33;39.33;99410.14;;;;-63
2020/03/03 10:54:02;;;;;;;1.97;1.36;;;;;;;20.35;39.68;99411.20;;;;-56
2020/03/03 10:57:02;;;;;;;2.81;1.54;;;;;;;20.39;39.97;99410.02;;;;-60
2020/03/03 11:00:02;;;;;;;1.77;1.23;;;;;;;20.37;39.49;99417.52;;;;-60
2020/03/03 11:03:02;;;;;;;3.46;1.40;;;;;;;20.36;39.00;99415.25;;;;-58
2020/03/03 11:06:02;;;;;;;2.88;1.31;;;;;;;20.35;39.18;99406.50;;;;-59
2020/03/03 11:09:02;;;;;;;1.74;1.31;;;;;;;20.33;39.02;99400.48;;;;-59
2020/03/03 11:12:02;;;;;;;1.74;1.32;;;;;;;20.32;38.48;99400.73;;;;-59
2020/03/03 11:15:02;;;;;;;2.50;1.39;;;;;;;20.31;38.74;99399.37;;;;-59
2020/03/03 11:18:02;;;;;;;1.39;1.19;;;;;;;20.31;38.39;99395.98;;;;-59
2020/03/03 11:21:02;;;;;;;2.33;1.31;;;;;;;20.32;38.62;99395.88;;;;-58
2020/03/03 11:24:03;;;;;;;2.54;1.41;;;;;;;20.32;38.55;99398.80;;;;-59
2020/03/03 11:27:03;;;;;;;1.84;1.45;;;;;;;20.32;38.28;99395.67;;;;-59
2020/03/03 11:30:02;;;;;;;1.93;1.40;;;;;;;20.32;38.24;99389.84;;;;-60
2020/03/03 11:33:02;;;;;;;1.67;1.36;;;;;;;20.31;38.29;99398.27;;;;-58
2020/03/03 11:36:02;;;;;;;2.54;1.55;;;;;;;20.30;38.03;99394.14;;;;-59
2020/03/03 11:39:02;;;;;;;1.95;1.44;;;;;;;20.32;37.94;99399.70;;;;-58
2020/03/03 11:42:02;;;;;;;2.45;1.57;;;;;;;20.32;38.10;99399.39;;;;-59
2020/03/03 11:45:02;;;;;;;2.39;1.57;;;;;;;20.33;38.22;99390.00;;;;-59
2020/03/03 11:48:02;;;;;;;2.43;1.46;;;;;;;20.34;38.15;99392.64;;;;-59
2020/03/03 11:51:02;;;;;;;1.52;1.39;;;;;;;20.34;37.90;99388.11;;;;-59
2020/03/03 11:54:02;;;;;;;2.02;1.60;;;;;;;20.34;37.99;99383.58;;;;-59
2020/03/03 11:57:02;;;;;;;2.77;1.47;;;;;;;20.36;37.99;99380.95;;;;-59
2020/03/03 12:00:02;;;;;;;1.62;1.39;;;;;;;20.40;38.34;99378.42;;;;-53
2020/03/03 12:03:02;;;;;;;1.52;1.36;;;;;;;20.43;38.67;99378.76;;;;-54
2020/03/03 12:06:02;;;;;;;1.71;1.40;;;;;;;20.44;38.74;99376.50;;;;-54
2020/03/03 12:09:02;;;;;;;1.79;1.41;;;;;;;20.46;38.80;99373.89;;;;-59
2020/03/03 12:12:02;;;;;;;1.47;1.37;;;;;;;20.47;38.30;99370.30;;;;-58
2020/03/03 12:15:02;;;;;;;2.65;1.37;;;;;;;20.51;38.78;99370.73;;;;-58
2020/03/03 12:18:02;;;;;;;2.95;1.77;;;;;;;20.44;37.98;99383.07;;;;-55
2020/03/03 12:21:02;;;;;;;2.93;1.65;;;;;;;20.39;37.42;99383.70;;;;-65
2020/03/03 12:24:02;;;;;;;3.57;1.77;;;;;;;20.35;37.25;99385.45;;;;-63
2020/03/03 12:27:02;;;;;;;7.73;1.81;;;;;;;20.37;37.74;99376.94;;;;-57
2020/03/03 12:30:02;;;;;;;3.03;1.66;;;;;;;20.36;37.68;99370.38;;;;-57
2020/03/03 12:33:02;;;;;;;2.15;1.53;;;;;;;20.36;37.73;99365.62;;;;-58
2020/03/03 12:36:02;;;;;;;2.31;1.60;;;;;;;20.37;37.78;99365.20;;;;-58
2020/03/03 12:39:02;;;;;;;2.63;1.61;;;;;;;20.36;37.73;99364.61;;;;-57
2020/03/03 12:42:02;;;;;;;2.32;1.45;;;;;;;20.38;37.81;99365.41;;;;-57
2020/03/03 12:45:02;;;;;;;2.06;1.55;;;;;;;20.38;37.83;99356.67;;;;-57
2020/03/03 12:48:02;;;;;;;2.79;1.50;;;;;;;20.36;37.79;99349.25;;;;-57
2020/03/03 12:51:02;;;;;;;2.37;1.50;;;;;;;20.36;37.83;99351.43;;;;-58
2020/03/03 12:54:02;;;;;;;3.13;1.40;;;;;;;20.38;37.82;99344.70;;;;-58
2020/03/03 12:57:02;;;;;;;2.49;1.53;;;;;;;20.36;37.73;99345.90;;;;-58
2020/03/03 13:00:02;;;;;;;1.73;1.39;;;;;;;20.37;37.83;99344.58;;;;-58
2020/03/03 13:03:02;;;;;;;2.93;1.53;;;;;;;20.37;37.79;99348.03;;;;-57
2020/03/03 13:06:02;;;;;;;3.36;1.60;;;;;;;20.37;37.85;99343.00;;;;-57
2020/03/03 13:09:02;;;;;;;1.95;1.45;;;;;;;20.38;37.78;99343.20;;;;-58
2020/03/03 13:12:02;;;;;;;1.55;1.29;;;;;;;20.38;37.69;99345.44;;;;-57
2020/03/03 13:15:02;;;;;;;2.39;1.65;;;;;;;20.39;37.72;99345.63;;;;-58
2020/03/03 13:18:02;;;;;;;1.84;1.49;;;;;;;20.39;37.76;99342.38;;;;-58
2020/03/03 13:21:02;;;;;;;2.17;1.43;;;;;;;20.39;37.92;99342.88;;;;-57
2020/03/03 13:24:02;;;;;;;2.33;1.40;;;;;;;20.39;37.82;99346.47;;;;-57
2020/03/03 13:27:02;;;;;;;1.89;1.47;;;;;;;20.41;37.80;99344.17;;;;-57
2020/03/03 13:30:02;;;;;;;1.59;1.41;;;;;;;20.41;37.77;99344.73;;;;-58
2020/03/03 13:33:02;;;;;;;2.77;1.68;;;;;;;20.42;37.81;99342.84;;;;-57
2020/03/03 13:36:02;;;;;;;3.10;1.50;;;;;;;20.46;38.16;99339.09;;;;-55
2020/03/03 13:39:02;;;;;;;3.03;1.49;;;;;;;20.48;38.28;99336.55;;;;-55
2020/03/03 13:42:02;;;;;;;1.93;1.41;;;;;;;20.54;38.71;99340.17;;;;-56
2020/03/03 13:45:02;;;;;;;1.68;1.45;;;;;;;20.57;38.60;99337.38;;;;-62
2020/03/03 13:48:02;;;;;;;1.87;1.40;;;;;;;20.61;38.48;99341.33;;;;-54
2020/03/03 13:51:02;;;;;;;2.16;1.55;;;;;;;20.65;38.60;99351.32;;;;-52
2020/03/03 13:54:02;;;;;;;2.75;1.50;;;;;;;20.67;38.67;99349.69;;;;-51
2020/03/03 13:57:02;;;;;;;1.93;1.49;;;;;;;20.68;38.43;99360.27;;;;-48
2020/03/03 14:00:02;;;;;;;3.43;1.49;;;;;;;20.71;38.53;99363.93;;;;-54
2020/03/03 14:03:02;;;;;;;1.96;1.47;;;;;;;20.70;38.28;99370.72;;;;-60
2020/03/03 14:06:02;;;;;;;1.77;1.45;;;;;;;20.72;38.46;99370.16;;;;-49
2020/03/03 14:09:02;;;;;;;2.61;1.40;;;;;;;20.74;38.68;99372.05;;;;-52
2020/03/03 14:12:02;;;;;;;1.91;1.31;;;;;;;20.74;38.70;99376.58;;;;-55
2020/03/03 14:15:02;;;;;;;2.80;1.53;;;;;;;20.74;38.71;99370.88;;;;-57
2020/03/03 14:18:02;;;;;;;2.69;1.61;;;;;;;20.75;38.63;99374.32;;;;-58
2020/03/03 14:21:02;;;;;;;3.11;1.55;;;;;;;20.74;38.34;99372.79;;;;-56
2020/03/03 14:24:02;;;;;;;3.31;1.64;;;;;;;20.75;38.64;99377.20;;;;-53
2020/03/03 14:27:02;;;;;;;2.35;1.51;;;;;;;20.76;38.71;99376.80;;;;-52
2020/03/03 14:30:02;;;;;;;2.69;1.60;;;;;;;20.75;38.25;99369.82;;;;-53
2020/03/03 14:33:02;;;;;;;3.05;1.51;;;;;;;20.74;37.79;99373.06;;;;-53
2020/03/03 14:36:02;;;;;;;2.49;1.51;;;;;;;20.72;37.63;99371.91;;;;-53
2020/03/03 14:39:02;;;;;;;3.32;1.59;;;;;;;20.73;37.62;99376.29;;;;-53
2020/03/03 14:42:02;;;;;;;3.25;1.50;;;;;;;20.72;37.50;99376.20;;;;-53
2020/03/03 14:45:02;;;;;;;2.70;1.59;;;;;;;20.72;37.38;99376.77;;;;-52
2020/03/03 14:48:02;;;;;;;1.97;1.42;;;;;;;20.72;37.42;99376.03;;;;-53
2020/03/03 14:51:02;;;;;;;2.13;1.50;;;;;;;20.72;37.34;99373.25;;;;-53
2020/03/03 14:54:02;;;;;;;2.50;1.43;;;;;;;20.73;37.49;99378.83;;;;-52
2020/03/03 14:57:02;;;;;;;2.84;1.42;;;;;;;20.73;37.20;99377.91;;;;-52
2020/03/03 15:00:02;;;;;;;1.95;1.51;;;;;;;20.73;37.37;99380.25;;;;-53
2020/03/03 15:03:02;;;;;;;3.92;1.61;;;;;;;20.73;37.22;99386.38;;;;-53
2020/03/03 15:06:02;;;;;;;3.29;1.50;;;;;;;20.73;36.95;99385.63;;;;-52
2020/03/03 15:09:02;;;;;;;2.34;1.45;;;;;;;20.73;37.02;99392.49;;;;-52
2020/03/03 15:12:02;;;;;;;1.61;1.43;;;;;;;20.73;37.34;99389.81;;;;-53
2020/03/03 15:15:02;;;;;;;2.47;1.51;;;;;;;20.71;37.07;99394.05;;;;-53
2020/03/03 15:18:02;;;;;;;2.20;1.40;;;;;;;20.72;36.99;99398.18;;;;-52
2020/03/03 15:21:02;;;;;;;2.03;1.41;;;;;;;20.72;37.04;99401.88;;;;-53
2020/03/03 15:24:02;;;;;;;1.91;1.39;;;;;;;20.72;37.18;99412.51;;;;-52
2020/03/03 15:27:02;;;;;;;1.79;1.39;;;;;;;20.71;37.13;99412.17;;;;-52
2020/03/03 15:30:02;;;;;;;1.87;1.41;;;;;;;20.71;37.14;99407.21;;;;-53
2020/03/03 15:33:02;;;;;;;1.72;1.41;;;;;;;20.71;36.99;99408.89;;;;-53
2020/03/03 15:36:02;;;;;;;3.01;1.42;;;;;;;20.70;37.14;99407.63;;;;-52
2020/03/03 15:39:02;;;;;;;1.69;1.30;;;;;;;20.71;36.97;99412.25;;;;-52
2020/03/03 15:42:02;;;;;;;1.51;1.34;;;;;;;20.71;36.87;99407.05;;;;-53
2020/03/03 15:45:03;;;;;;;2.20;1.45;;;;;;;20.72;37.03;99410.09;;;;-49
2020/03/03 15:48:02;;;;;;;2.78;1.30;;;;;;;20.72;37.15;99410.59;;;;-49
2020/03/03 15:51:02;;;;;;;1.43;1.28;;;;;;;20.72;37.07;99410.86;;;;-59
2020/03/03 15:54:02;;;;;;;1.37;1.27;;;;;;;20.73;36.97;99409.44;;;;-60
2020/03/03 15:57:02;;;;;;;1.89;1.47;;;;;;;20.75;36.75;99417.54;;;;-59
2020/03/03 16:00:02;;;;;;;1.51;1.33;;;;;;;20.75;37.10;99419.05;;;;-60
2020/03/03 16:03:02;;;;;;;1.61;1.38;;;;;;;20.76;36.86;99425.95;;;;-60
2020/03/03 16:06:02;;;;;;;2.00;1.31;;;;;;;20.75;37.01;99429.52;;;;-61
2020/03/03 16:09:02;;;;;;;2.73;1.42;;;;;;;20.74;36.77;99438.25;;;;-60
2020/03/03 16:12:02;;;;;;;2.08;1.49;;;;;;;20.76;36.94;99442.46;;;;-59
2020/03/03 16:15:02;;;;;;;1.73;1.30;;;;;;;20.75;36.75;99446.30;;;;-60
2020/03/03 16:18:02;;;;;;;3.52;1.42;;;;;;;20.78;37.48;99453.52;;;;-53
2020/03/03 16:21:02;;;;;;;1.57;1.27;;;;;;;20.79;37.74;99461.27;;;;-54
2020/03/03 16:24:02;;;;;;;2.11;1.43;;;;;;;20.80;37.92;99466.11;;;;-55
2020/03/03 16:27:02;;;;;;;1.47;1.31;;;;;;;20.81;37.59;99470.33;;;;-54
2020/03/03 16:30:02;;;;;;;1.53;1.30;;;;;;;20.83;37.97;99472.96;;;;-55
2020/03/03 16:33:02;;;;;;;1.62;1.30;;;;;;;20.85;38.13;99474.02;;;;-58
2020/03/03 16:36:02;;;;;;;2.23;1.40;;;;;;;20.85;37.70;99478.61;;;;-61
2020/03/03 16:39:02;;;;;;;1.79;1.21;;;;;;;20.89;38.17;99489.52;;;;-57
2020/03/03 16:42:02;;;;;;;1.30;1.20;;;;;;;20.90;37.45;99500.48;;;;-64
2020/03/03 16:45:02;;;;;;;1.51;1.31;;;;;;;20.94;37.99;99507.19;;;;-60
2020/03/03 16:48:02;;;;;;;2.43;1.50;;;;;;;20.96;37.82;99519.82;;;;-60
2020/03/03 16:51:02;;;;;;;1.67;1.37;;;;;;;20.96;37.71;99529.89;;;;-65
2020/03/03 16:54:02;;;;;;;2.37;1.34;;;;;;;20.99;38.03;99533.22;;;;-59
2020/03/03 16:57:02;;;;;;;1.35;1.23;;;;;;;20.99;37.54;99540.61;;;;-58
2020/03/03 17:00:02;;;;;;;1.47;1.36;;;;;;;21.00;37.57;99544.09;;;;-57